sensor_id;sensor_type;location;lat;lon;timestamp;pressure;altitude;pressure_sealevel;temperature;humidity
54546;BME280;40444;45.184;9.850;2024-02-14T00:01:04;101543.56;;;6.90;100.00
54546;BME280;40444;45.184;9.850;2024-02-14T00:03:35;101544.31;;;6.92;100.00
54546;BME280;40444;45.184;9.850;2024-02-14T00:06:05;101546.97;;;6.92;100.00
54546;BME280;40444;45.184;9.850;2024-02-14T00:08:34;101551.94;;;6.83;100.00
54546;BME280;40444;45.184;9.850;2024-02-14T00:11:02;101559.94;;;6.83;100.00
54546;BME280;40444;45.184;9.850;2024-02-14T00:13:31;101561.97;;;6.78;100.00
54546;BME280;40444;45.184;9.850;2024-02-14T00:16:02;101566.38;;;6.79;100.00
54546;BME280;40444;45.184;9.850;2024-02-14T00:18:32;101564.41;;;6.67;100.00
54546;BME280;40444;45.184;9.850;2024-02-14T00:21:00;101571.03;;;6.60;100.00
54546;BME280;40444;45.184;9.850;2024-02-14T00:23:29;101563.56;;;6.67;100.00
54546;BME280;40444;45.184;9.850;2024-02-14T00:25:58;101557.72;;;6.60;100.00
54546;BME280;40444;45.184;9.850;2024-02-14T00:28:26;101566.22;;;6.67;100.00
54546;BME280;40444;45.184;9.850;2024-02-14T00:30:55;101565.19;;;6.69;100.00
54546;BME280;40444;45.184;9.850;2024-02-14T00:33:43;101562.34;;;6.72;100.00
54546;BME280;40444;45.184;9.850;2024-02-14T00:36:14;101566.91;;;6.70;100.00
54546;BME280;40444;45.184;9.850;2024-02-14T00:38:44;101556.06;;;6.73;100.00
54546;BME280;40444;45.184;9.850;2024-02-14T00:41:12;101566.41;;;6.64;100.00
54546;BME280;40444;45.184;9.850;2024-02-14T00:43:41;101568.19;;;6.63;100.00
54546;BME280;40444;45.184;9.850;2024-02-14T00:46:09;101564.59;;;6.64;100.00
54546;BME280;40444;45.184;9.850;2024-02-14T00:48:37;101569.91;;;6.64;100.00
54546;BME280;40444;45.184;9.850;2024-02-14T00:51:06;101570.75;;;6.65;100.00
54546;BME280;40444;45.184;9.850;2024-02-14T00:53:35;101573.63;;;6.62;100.00
54546;BME280;40444;45.184;9.850;2024-02-14T00:56:03;101576.72;;;6.70;100.00
54546;BME280;40444;45.184;9.850;2024-02-14T00:58:32;101574.22;;;6.67;100.00
54546;BME280;40444;45.184;9.850;2024-02-14T01:01:01;101572.13;;;6.72;100.00
54546;BME280;40444;45.184;9.850;2024-02-14T01:03:31;101571.78;;;6.78;100.00
54546;BME280;40444;45.184;9.850;2024-02-14T01:06:00;101570.16;;;6.75;100.00
54546;BME280;40444;45.184;9.850;2024-02-14T01:08:28;101572.41;;;6.67;100.00
54546;BME280;40444;45.184;9.850;2024-02-14T01:10:57;101571.63;;;6.65;100.00
54546;BME280;40444;45.184;9.850;2024-02-14T01:13:25;101572.31;;;6.69;100.00
54546;BME280;40444;45.184;9.850;2024-02-14T01:15:54;101573.16;;;6.69;100.00
54546;BME280;40444;45.184;9.850;2024-02-14T01:18:22;101574.72;;;6.73;100.00
54546;BME280;40444;45.184;9.850;2024-02-14T01:20:51;101571.88;;;6.76;100.00
54546;BME280;40444;45.184;9.850;2024-02-14T01:23:19;101577.97;;;6.78;100.00
54546;BME280;40444;45.184;9.850;2024-02-14T01:25:49;101581.31;;;6.82;100.00
54546;BME280;40444;45.184;9.850;2024-02-14T01:28:18;101583.81;;;6.85;100.00
54546;BME280;40444;45.184;9.850;2024-02-14T01:30:47;101584.56;;;6.87;100.00
54546;BME280;40444;45.184;9.850;2024-02-14T01:33:15;101590.50;;;6.92;100.00
54546;BME280;40444;45.184;9.850;2024-02-14T01:35:45;101584.50;;;6.89;100.00
54546;BME280;40444;45.184;9.850;2024-02-14T01:38:13;101591.69;;;6.87;100.00
54546;BME280;40444;45.184;9.850;2024-02-14T01:40:42;101591.69;;;6.87;100.00
54546;BME280;40444;45.184;9.850;2024-02-14T01:43:12;101596.25;;;6.84;100.00
54546;BME280;40444;45.184;9.850;2024-02-14T01:45:42;101591.53;;;6.90;100.00
54546;BME280;40444;45.184;9.850;2024-02-14T01:48:15;101600.63;;;6.86;100.00
54546;BME280;40444;45.184;9.850;2024-02-14T01:50:47;101593.88;;;6.80;100.00
54546;BME280;40444;45.184;9.850;2024-02-14T01:53:16;101590.66;;;6.89;100.00
54546;BME280;40444;45.184;9.850;2024-02-14T01:55:44;101586.38;;;6.87;100.00
54546;BME280;40444;45.184;9.850;2024-02-14T01:58:13;101593.00;;;6.79;100.00
54546;BME280;40444;45.184;9.850;2024-02-14T02:00:42;101596.25;;;6.84;100.00
54546;BME280;40444;45.184;9.850;2024-02-14T02:03:14;101601.22;;;6.91;100.00
54546;BME280;40444;45.184;9.850;2024-02-14T02:05:42;101601.22;;;6.91;100.00
54546;BME280;40444;45.184;9.850;2024-02-14T02:08:11;101590.41;;;6.94;100.00
54546;BME280;40444;45.184;9.850;2024-02-14T02:10:39;101586.59;;;6.98;100.00
54546;BME280;40444;45.184;9.850;2024-02-14T02:13:29;101593.28;;;7.05;100.00
54546;BME280;40444;45.184;9.850;2024-02-14T02:16:17;101591.41;;;7.07;100.00
54546;BME280;40444;45.184;9.850;2024-02-14T02:19:06;101588.56;;;7.10;100.00
54546;BME280;40444;45.184;9.850;2024-02-14T02:21:57;101591.97;;;7.12;100.00
54546;BME280;40444;45.184;9.850;2024-02-14T02:24:26;101605.31;;;7.12;100.00
54546;BME280;40444;45.184;9.850;2024-02-14T02:26:54;101596.44;;;7.12;100.00
54546;BME280;40444;45.184;9.850;2024-02-14T02:29:44;101603.50;;;7.13;100.00
54546;BME280;40444;45.184;9.850;2024-02-14T02:32:14;101598.16;;;7.13;100.00
54546;BME280;40444;45.184;9.850;2024-02-14T02:34:44;101602.53;;;7.14;100.00
54546;BME280;40444;45.184;9.850;2024-02-14T02:37:13;101595.59;;;7.11;100.00
54546;BME280;40444;45.184;9.850;2024-02-14T02:40:07;101593.63;;;7.15;100.00
54546;BME280;40444;45.184;9.850;2024-02-14T02:43:00;101592.28;;;7.22;100.00
54546;BME280;40444;45.184;9.850;2024-02-14T02:45:49;101588.47;;;7.26;100.00
54546;BME280;40444;45.184;9.850;2024-02-14T02:48:38;101583.94;;;7.28;100.00
54546;BME280;40444;45.184;9.850;2024-02-14T02:51:09;101596.03;;;7.33;100.00
54546;BME280;40444;45.184;9.850;2024-02-14T02:54:09;101592.91;;;7.41;100.00
54546;BME280;40444;45.184;9.850;2024-02-14T02:56:59;101590.44;;;7.08;100.00
54546;BME280;40444;45.184;9.850;2024-02-14T02:59:31;101597.59;;;6.92;100.00
54546;BME280;40444;45.184;9.850;2024-02-14T03:02:01;101596.28;;;6.69;100.00
54546;BME280;40444;45.184;9.850;2024-02-14T03:04:49;101597.16;;;6.53;100.00
54546;BME280;40444;45.184;9.850;2024-02-14T03:07:39;101600.09;;;6.33;100.00
54546;BME280;40444;45.184;9.850;2024-02-14T03:10:28;101594.06;;;6.29;100.00
54546;BME280;40444;45.184;9.850;2024-02-14T03:13:17;101581.28;;;6.36;100.00
54546;BME280;40444;45.184;9.850;2024-02-14T03:16:05;101588.66;;;6.47;100.00
54546;BME280;40444;45.184;9.850;2024-02-14T03:18:34;101594.75;;;6.49;100.00
54546;BME280;40444;45.184;9.850;2024-02-14T03:21:02;101599.66;;;6.56;100.00
54546;BME280;40444;45.184;9.850;2024-02-14T03:23:31;101593.88;;;6.64;100.00
54546;BME280;40444;45.184;9.850;2024-02-14T03:25:59;101600.31;;;6.60;100.00
54546;BME280;40444;45.184;9.850;2024-02-14T03:28:28;101604.72;;;6.61;100.00
54546;BME280;40444;45.184;9.850;2024-02-14T03:30:57;101605.50;;;6.63;100.00
54546;BME280;40444;45.184;9.850;2024-02-14T03:33:26;101610.22;;;6.58;100.00
54546;BME280;40444;45.184;9.850;2024-02-14T03:35:57;101610.22;;;6.58;100.00
54546;BME280;40444;45.184;9.850;2024-02-14T03:38:26;101618.31;;;6.56;100.00
54546;BME280;40444;45.184;9.850;2024-02-14T03:40:54;101621.88;;;6.55;100.00
54546;BME280;40444;45.184;9.850;2024-02-14T03:43:23;101615.81;;;6.53;100.00
54546;BME280;40444;45.184;9.850;2024-02-14T03:45:56;101622.25;;;6.49;100.00
54546;BME280;40444;45.184;9.850;2024-02-14T03:48:24;101619.69;;;6.48;100.00
54546;BME280;40444;45.184;9.850;2024-02-14T03:50:53;101621.72;;;6.43;100.00
54546;BME280;40444;45.184;9.850;2024-02-14T03:53:22;101625.59;;;6.37;100.00
54546;BME280;40444;45.184;9.850;2024-02-14T03:55:51;101631.97;;;6.35;100.00
54546;BME280;40444;45.184;9.850;2024-02-14T03:58:21;101639.00;;;6.36;100.00
54546;BME280;40444;45.184;9.850;2024-02-14T04:00:52;101635.72;;;6.30;100.00
54546;BME280;40444;45.184;9.850;2024-02-14T04:03:21;101637.69;;;6.27;100.00
54546;BME280;40444;45.184;9.850;2024-02-14T04:05:49;101637.25;;;6.19;100.00
54546;BME280;40444;45.184;9.850;2024-02-14T04:08:18;101639.75;;;6.22;100.00
54546;BME280;40444;45.184;9.850;2024-02-14T04:10:46;101645.84;;;6.24;100.00
54546;BME280;40444;45.184;9.850;2024-02-14T04:13:15;101643.97;;;6.26;100.00
54546;BME280;40444;45.184;9.850;2024-02-14T04:15:43;101649.19;;;6.27;100.00
54546;BME280;40444;45.184;9.850;2024-02-14T04:18:14;101652.53;;;6.15;100.00
54546;BME280;40444;45.184;9.850;2024-02-14T04:20:44;101651.59;;;6.16;100.00
54546;BME280;40444;45.184;9.850;2024-02-14T04:23:13;101649.88;;;6.15;100.00
54546;BME280;40444;45.184;9.850;2024-02-14T04:25:41;101656.53;;;6.06;100.00
54546;BME280;40444;45.184;9.850;2024-02-14T04:28:09;101660.25;;;6.04;100.00
54546;BME280;40444;45.184;9.850;2024-02-14T04:30:40;101664.53;;;5.89;100.00
54546;BME280;40444;45.184;9.850;2024-02-14T04:33:17;101659.09;;;5.92;100.00
54546;BME280;40444;45.184;9.850;2024-02-14T04:35:45;101658.69;;;5.82;100.00
54546;BME280;40444;45.184;9.850;2024-02-14T04:38:14;101660.19;;;5.71;100.00
54546;BME280;40444;45.184;9.850;2024-02-14T04:40:42;101657.75;;;5.66;100.00
54546;BME280;40444;45.184;9.850;2024-02-14T04:43:11;101662.59;;;5.58;100.00
54546;BME280;40444;45.184;9.850;2024-02-14T04:45:40;101662.94;;;5.52;100.00
54546;BME280;40444;45.184;9.850;2024-02-14T04:48:10;101674.66;;;5.48;100.00
54546;BME280;40444;45.184;9.850;2024-02-14T04:50:39;101677.88;;;5.54;100.00
54546;BME280;40444;45.184;9.850;2024-02-14T04:53:07;101677.72;;;5.57;100.00
54546;BME280;40444;45.184;9.850;2024-02-14T04:55:36;101685.63;;;5.59;100.00
54546;BME280;40444;45.184;9.850;2024-02-14T04:58:04;101686.63;;;5.56;100.00
54546;BME280;40444;45.184;9.850;2024-02-14T05:00:33;101688.19;;;5.61;100.00
54546;BME280;40444;45.184;9.850;2024-02-14T05:03:02;101690.63;;;5.48;100.00
54546;BME280;40444;45.184;9.850;2024-02-14T05:05:32;101701.19;;;5.32;100.00
54546;BME280;40444;45.184;9.850;2024-02-14T05:08:02;101696.38;;;5.21;100.00
54546;BME280;40444;45.184;9.850;2024-02-14T05:10:33;101693.00;;;5.18;100.00
54546;BME280;40444;45.184;9.850;2024-02-14T05:13:01;101700.66;;;5.06;100.00
54546;BME280;40444;45.184;9.850;2024-02-14T05:15:29;101702.47;;;5.06;100.00
54546;BME280;40444;45.184;9.850;2024-02-14T05:17:58;101701.75;;;5.02;100.00
54546;BME280;40444;45.184;9.850;2024-02-14T05:20:29;101708.84;;;5.02;100.00
54546;BME280;40444;45.184;9.850;2024-02-14T05:22:58;101709.63;;;5.04;100.00
54546;BME280;40444;45.184;9.850;2024-02-14T05:25:26;101702.47;;;5.06;100.00
54546;BME280;40444;45.184;9.850;2024-02-14T05:27:59;101701.84;;;5.01;100.00
54546;BME280;40444;45.184;9.850;2024-02-14T05:30:29;101707.72;;;4.89;100.00
54546;BME280;40444;45.184;9.850;2024-02-14T05:33:07;101695.31;;;4.89;100.00
54546;BME280;40444;45.184;9.850;2024-02-14T05:35:36;101694.53;;;4.87;100.00
54546;BME280;40444;45.184;9.850;2024-02-14T05:38:07;101683.97;;;4.86;100.00
54546;BME280;40444;45.184;9.850;2024-02-14T05:40:36;101678.09;;;4.79;100.00
54546;BME280;40444;45.184;9.850;2024-02-14T05:43:07;101687.66;;;4.83;100.00
54546;BME280;40444;45.184;9.850;2024-02-14T05:45:36;101687.88;;;4.78;100.00
54546;BME280;40444;45.184;9.850;2024-02-14T05:48:05;101691.28;;;4.80;100.00
54546;BME280;40444;45.184;9.850;2024-02-14T05:50:34;101708.09;;;4.81;100.00
54546;BME280;40444;45.184;9.850;2024-02-14T05:53:03;101701.16;;;4.78;100.00
54546;BME280;40444;45.184;9.850;2024-02-14T05:55:32;101709.16;;;4.77;100.00
54546;BME280;40444;45.184;9.850;2024-02-14T05:58:02;101709.13;;;4.78;100.00
54546;BME280;40444;45.184;9.850;2024-02-14T06:00:31;101715.78;;;4.87;100.00
54546;BME280;40444;45.184;9.850;2024-02-14T06:03:00;101721.16;;;4.86;100.00
54546;BME280;40444;45.184;9.850;2024-02-14T06:05:28;101715.69;;;4.89;100.00
54546;BME280;40444;45.184;9.850;2024-02-14T06:07:56;101709.44;;;4.90;100.00
54546;BME280;40444;45.184;9.850;2024-02-14T06:10:25;101704.34;;;4.85;100.00
54546;BME280;40444;45.184;9.850;2024-02-14T06:12:54;101711.38;;;4.86;100.00
54546;BME280;40444;45.184;9.850;2024-02-14T06:15:22;101717.78;;;4.82;100.00
54546;BME280;40444;45.184;9.850;2024-02-14T06:17:51;101716.00;;;4.82;100.00
54546;BME280;40444;45.184;9.850;2024-02-14T06:20:19;101716.06;;;4.81;100.00
54546;BME280;40444;45.184;9.850;2024-02-14T06:22:49;101727.41;;;4.85;100.00
54546;BME280;40444;45.184;9.850;2024-02-14T06:25:31;101726.53;;;4.84;100.00
54546;BME280;40444;45.184;9.850;2024-02-14T06:28:05;101726.84;;;4.78;100.00
54546;BME280;40444;45.184;9.850;2024-02-14T06:30:33;101727.84;;;4.75;100.00
54546;BME280;40444;45.184;9.850;2024-02-14T06:33:02;101736.75;;;4.74;100.00
54546;BME280;40444;45.184;9.850;2024-02-14T06:35:31;101744.41;;;4.62;100.00
54546;BME280;40444;45.184;9.850;2024-02-14T06:38:00;101754.09;;;4.63;100.00
54546;BME280;40444;45.184;9.850;2024-02-14T06:40:33;101759.91;;;4.71;100.00
54546;BME280;40444;45.184;9.850;2024-02-14T06:43:02;101754.81;;;4.66;100.00
54546;BME280;40444;45.184;9.850;2024-02-14T06:45:31;101761.19;;;4.62;100.00
54546;BME280;40444;45.184;9.850;2024-02-14T06:48:10;101764.19;;;4.54;100.00
54546;BME280;40444;45.184;9.850;2024-02-14T06:50:39;101757.47;;;4.66;100.00
54546;BME280;40444;45.184;9.850;2024-02-14T06:53:07;101766.16;;;4.70;100.00
54546;BME280;40444;45.184;9.850;2024-02-14T06:55:35;101775.06;;;4.69;100.00
54546;BME280;40444;45.184;9.850;2024-02-14T06:58:04;101774.84;;;4.73;100.00
54546;BME280;40444;45.184;9.850;2024-02-14T07:00:33;101786.13;;;4.78;100.00
54546;BME280;40444;45.184;9.850;2024-02-14T07:03:02;101792.50;;;4.74;100.00
54546;BME280;40444;45.184;9.850;2024-02-14T07:05:31;101786.03;;;4.80;100.00
54546;BME280;40444;45.184;9.850;2024-02-14T07:07:59;101787.19;;;4.74;100.00
54546;BME280;40444;45.184;9.850;2024-02-14T07:10:29;101782.88;;;4.72;100.00
54546;BME280;40444;45.184;9.850;2024-02-14T07:12:57;101784.66;;;4.71;100.00
54546;BME280;40444;45.184;9.850;2024-02-14T07:15:26;101803.91;;;4.76;100.00
54546;BME280;40444;45.184;9.850;2024-02-14T07:17:57;101815.84;;;4.87;100.00
54546;BME280;40444;45.184;9.850;2024-02-14T07:20:27;101819.34;;;4.87;100.00
54546;BME280;40444;45.184;9.850;2024-02-14T07:22:55;101821.94;;;4.89;100.00
54546;BME280;40444;45.184;9.850;2024-02-14T07:25:25;101825.56;;;4.86;100.00
54546;BME280;40444;45.184;9.850;2024-02-14T07:27:54;101822.56;;;4.94;100.00
54546;BME280;40444;45.184;9.850;2024-02-14T07:30:22;101823.16;;;5.00;100.00
54546;BME280;40444;45.184;9.850;2024-02-14T07:32:51;101831.56;;;5.10;100.00
54546;BME280;40444;45.184;9.850;2024-02-14T07:35:20;101839.94;;;5.20;100.00
54546;BME280;40444;45.184;9.850;2024-02-14T07:37:48;101835.63;;;5.36;100.00
54546;BME280;40444;45.184;9.850;2024-02-14T07:40:16;101833.66;;;5.58;100.00
54546;BME280;40444;45.184;9.850;2024-02-14T07:43:05;101841.34;;;5.82;100.00
54546;BME280;40444;45.184;9.850;2024-02-14T07:45:35;101841.97;;;5.87;100.00
54546;BME280;40444;45.184;9.850;2024-02-14T07:48:05;101842.88;;;6.05;100.00
54546;BME280;40444;45.184;9.850;2024-02-14T07:50:33;101852.59;;;6.23;100.00
54546;BME280;40444;45.184;9.850;2024-02-14T07:53:02;101851.47;;;6.45;100.00
54546;BME280;40444;45.184;9.850;2024-02-14T07:55:31;101854.97;;;6.63;100.00
54546;BME280;40444;45.184;9.850;2024-02-14T07:57:59;101852.63;;;6.90;100.00
54546;BME280;40444;45.184;9.850;2024-02-14T08:00:28;101848.78;;;7.11;100.00
54546;BME280;40444;45.184;9.850;2024-02-14T08:02:57;101850.44;;;7.29;100.00
54546;BME280;40444;45.184;9.850;2024-02-14T08:05:25;101859.97;;;7.49;100.00
54546;BME280;40444;45.184;9.850;2024-02-14T08:07:54;101863.66;;;7.63;100.00
54546;BME280;40444;45.184;9.850;2024-02-14T08:10:23;101852.03;;;7.79;100.00
54546;BME280;40444;45.184;9.850;2024-02-14T08:12:52;101840.94;;;8.01;100.00
54546;BME280;40444;45.184;9.850;2024-02-14T08:15:21;101838.72;;;8.24;100.00
54546;BME280;40444;45.184;9.850;2024-02-14T08:17:49;101838.50;;;8.43;100.00
54546;BME280;40444;45.184;9.850;2024-02-14T08:20:19;101847.97;;;8.63;100.00
54546;BME280;40444;45.184;9.850;2024-02-14T08:23:01;101852.84;;;8.84;100.00
54546;BME280;40444;45.184;9.850;2024-02-14T08:25:31;101855.22;;;9.03;100.00
54546;BME280;40444;45.184;9.850;2024-02-14T08:27:59;101853.88;;;9.25;100.00
54546;BME280;40444;45.184;9.850;2024-02-14T08:30:27;101856.22;;;9.44;100.00
54546;BME280;40444;45.184;9.850;2024-02-14T08:32:56;101857.13;;;9.57;100.00
54546;BME280;40444;45.184;9.850;2024-02-14T08:35:25;101858.72;;;9.74;100.00
54546;BME280;40444;45.184;9.850;2024-02-14T08:37:53;101857.97;;;9.84;100.00
54546;BME280;40444;45.184;9.850;2024-02-14T08:40:25;101856.75;;;10.03;100.00
54546;BME280;40444;45.184;9.850;2024-02-14T08:42:53;101855.50;;;10.21;100.00
54546;BME280;40444;45.184;9.850;2024-02-14T08:45:22;101860.78;;;10.35;100.00
54546;BME280;40444;45.184;9.850;2024-02-14T08:47:51;101864.47;;;10.47;100.00
54546;BME280;40444;45.184;9.850;2024-02-14T08:50:20;101871.97;;;10.55;100.00
54546;BME280;40444;45.184;9.850;2024-02-14T08:52:49;101869.19;;;10.56;100.00
54546;BME280;40444;45.184;9.850;2024-02-14T08:55:17;101862.44;;;10.76;100.00
54546;BME280;40444;45.184;9.850;2024-02-14T08:57:47;101863.19;;;10.78;100.00
54546;BME280;40444;45.184;9.850;2024-02-14T09:00:16;101873.13;;;10.89;100.00
54546;BME280;40444;45.184;9.850;2024-02-14T09:02:48;101880.44;;;11.00;100.00
54546;BME280;40444;45.184;9.850;2024-02-14T09:05:18;101875.69;;;11.16;100.00
54546;BME280;40444;45.184;9.850;2024-02-14T09:07:47;101875.44;;;11.32;100.00
54546;BME280;40444;45.184;9.850;2024-02-14T09:10:16;101866.94;;;11.38;100.00
54546;BME280;40444;45.184;9.850;2024-02-14T09:12:44;101863.41;;;11.37;100.00
54546;BME280;40444;45.184;9.850;2024-02-14T09:15:13;101864.22;;;11.51;100.00
54546;BME280;40444;45.184;9.850;2024-02-14T09:17:41;101865.16;;;11.62;100.00
54546;BME280;40444;45.184;9.850;2024-02-14T09:20:11;101856.59;;;11.81;100.00
54546;BME280;40444;45.184;9.850;2024-02-14T09:22:42;101847.66;;;12.05;100.00
54546;BME280;40444;45.184;9.850;2024-02-14T09:25:11;101851.75;;;12.22;100.00
54546;BME280;40444;45.184;9.850;2024-02-14T09:27:40;101863.56;;;12.43;100.00
54546;BME280;40444;45.184;9.850;2024-02-14T09:30:09;101866.16;;;12.56;100.00
54546;BME280;40444;45.184;9.850;2024-02-14T09:32:55;101857.25;;;12.78;100.00
54546;BME280;40444;45.184;9.850;2024-02-14T09:35:23;101855.41;;;12.78;100.00
54546;BME280;40444;45.184;9.850;2024-02-14T09:37:53;101851.63;;;12.81;100.00
54546;BME280;40444;45.184;9.850;2024-02-14T09:40:22;101852.50;;;12.81;100.00
54546;BME280;40444;45.184;9.850;2024-02-14T09:42:55;101853.34;;;12.93;100.00
54546;BME280;40444;45.184;9.850;2024-02-14T09:45:26;101862.53;;;13.13;100.00
54546;BME280;40444;45.184;9.850;2024-02-14T09:47:56;101865.59;;;13.08;100.00
54546;BME280;40444;45.184;9.850;2024-02-14T09:50:26;101852.25;;;13.18;100.00
54546;BME280;40444;45.184;9.850;2024-02-14T09:52:57;101857.53;;;13.31;100.00
54546;BME280;40444;45.184;9.850;2024-02-14T09:55:27;101859.56;;;13.50;100.00
54546;BME280;40444;45.184;9.850;2024-02-14T09:57:56;101851.09;;;13.54;100.00
54546;BME280;40444;45.184;9.850;2024-02-14T10:00:26;101857.28;;;13.77;100.00
54546;BME280;40444;45.184;9.850;2024-02-14T10:02:55;101855.66;;;13.86;100.00
54546;BME280;40444;45.184;9.850;2024-02-14T10:05:24;101855.88;;;13.94;100.00
54546;BME280;40444;45.184;9.850;2024-02-14T10:07:56;101865.81;;;14.14;100.00
54546;BME280;40444;45.184;9.850;2024-02-14T10:10:25;101865.78;;;14.26;100.00
54546;BME280;40444;45.184;9.850;2024-02-14T10:12:54;101861.69;;;14.31;100.00
54546;BME280;40444;45.184;9.850;2024-02-14T10:15:24;101864.28;;;14.54;100.00
54546;BME280;40444;45.184;9.850;2024-02-14T10:17:53;101858.44;;;14.70;100.00
54546;BME280;40444;45.184;9.850;2024-02-14T10:20:22;101864.50;;;14.93;100.00
54546;BME280;40444;45.184;9.850;2024-02-14T10:22:50;101870.81;;;15.03;100.00
54546;BME280;40444;45.184;9.850;2024-02-14T10:25:19;101875.19;;;15.04;100.00
54546;BME280;40444;45.184;9.850;2024-02-14T10:27:50;101873.44;;;15.24;100.00
54546;BME280;40444;45.184;9.850;2024-02-14T10:30:19;101877.44;;;15.29;100.00
54546;BME280;40444;45.184;9.850;2024-02-14T10:32:47;101875.31;;;15.33;100.00
54546;BME280;40444;45.184;9.850;2024-02-14T10:35:20;101877.06;;;15.53;100.00
54546;BME280;40444;45.184;9.850;2024-02-14T10:37:50;101880.56;;;15.65;100.00
54546;BME280;40444;45.184;9.850;2024-02-14T10:40:20;101874.88;;;15.68;98.70
54546;BME280;40444;45.184;9.850;2024-02-14T10:42:49;101870.31;;;15.69;99.52
54546;BME280;40444;45.184;9.850;2024-02-14T10:45:19;101876.31;;;15.91;100.00
54546;BME280;40444;45.184;9.850;2024-02-14T10:47:51;101878.03;;;16.12;98.42
54546;BME280;40444;45.184;9.850;2024-02-14T10:50:22;101881.03;;;16.18;98.21
54546;BME280;40444;45.184;9.850;2024-02-14T10:52:53;101879.28;;;16.37;97.65
54546;BME280;40444;45.184;9.850;2024-02-14T10:55:29;101880.13;;;16.57;97.51
54546;BME280;40444;45.184;9.850;2024-02-14T10:57:58;101884.53;;;16.67;95.48
54546;BME280;40444;45.184;9.850;2024-02-14T11:00:28;101878.81;;;16.71;96.11
54546;BME280;40444;45.184;9.850;2024-02-14T11:02:58;101871.56;;;16.81;96.65
54546;BME280;40444;45.184;9.850;2024-02-14T11:05:28;101864.69;;;16.86;91.41
54546;BME280;40444;45.184;9.850;2024-02-14T11:08:07;101860.13;;;16.97;90.34
54546;BME280;40444;45.184;9.850;2024-02-14T11:10:38;101861.03;;;17.05;89.48
54546;BME280;40444;45.184;9.850;2024-02-14T11:13:12;101857.47;;;17.14;83.26
54546;BME280;40444;45.184;9.850;2024-02-14T11:15:45;101850.53;;;17.02;82.89
54546;BME280;40444;45.184;9.850;2024-02-14T11:18:25;101846.13;;;17.01;84.36
54546;BME280;40444;45.184;9.850;2024-02-14T11:20:54;101845.53;;;17.07;81.72
54546;BME280;40444;45.184;9.850;2024-02-14T11:23:25;101851.09;;;17.06;83.68
54546;BME280;40444;45.184;9.850;2024-02-14T11:26:05;101852.13;;;17.23;86.62
54546;BME280;40444;45.184;9.850;2024-02-14T11:28:37;101845.72;;;17.24;82.69
54546;BME280;40444;45.184;9.850;2024-02-14T11:31:07;101832.03;;;17.25;83.22
54546;BME280;40444;45.184;9.850;2024-02-14T11:33:38;101830.50;;;17.40;85.99
54546;BME280;40444;45.184;9.850;2024-02-14T11:36:10;101821.91;;;17.45;82.81
54546;BME280;40444;45.184;9.850;2024-02-14T11:38:40;101816.66;;;17.43;86.80
54546;BME280;40444;45.184;9.850;2024-02-14T11:41:10;101813.81;;;17.63;86.04
54546;BME280;40444;45.184;9.850;2024-02-14T11:43:39;101815.06;;;17.68;83.12
54546;BME280;40444;45.184;9.850;2024-02-14T11:46:07;101823.53;;;17.83;80.94
54546;BME280;40444;45.184;9.850;2024-02-14T11:48:36;101815.94;;;17.87;82.47
54546;BME280;40444;45.184;9.850;2024-02-14T11:51:09;101818.50;;;17.88;82.73
54546;BME280;40444;45.184;9.850;2024-02-14T11:53:38;101813.06;;;18.06;82.75
54546;BME280;40444;45.184;9.850;2024-02-14T11:56:09;101809.81;;;18.03;82.65
54546;BME280;40444;45.184;9.850;2024-02-14T11:58:38;101805.88;;;17.97;82.03
54546;BME280;40444;45.184;9.850;2024-02-14T12:01:06;101807.31;;;18.09;78.78
54546;BME280;40444;45.184;9.850;2024-02-14T12:03:35;101809.72;;;17.94;81.63
54546;BME280;40444;45.184;9.850;2024-02-14T12:06:04;101805.63;;;18.08;81.47
54546;BME280;40444;45.184;9.850;2024-02-14T12:08:34;101805.28;;;18.11;80.56
54546;BME280;40444;45.184;9.850;2024-02-14T12:11:03;101805.84;;;18.15;79.20
54546;BME280;40444;45.184;9.850;2024-02-14T12:13:32;101801.09;;;18.17;75.86
54546;BME280;40444;45.184;9.850;2024-02-14T12:16:02;101802.84;;;18.00;73.67
54546;BME280;40444;45.184;9.850;2024-02-14T12:18:30;101802.50;;;18.03;76.22
54546;BME280;40444;45.184;9.850;2024-02-14T12:21:06;101801.19;;;18.07;74.16
54546;BME280;40444;45.184;9.850;2024-02-14T12:23:36;101798.66;;;17.88;82.08
54546;BME280;40444;45.184;9.850;2024-02-14T12:26:05;101794.88;;;17.81;79.11
54546;BME280;40444;45.184;9.850;2024-02-14T12:28:33;101795.38;;;18.02;77.76
54546;BME280;40444;45.184;9.850;2024-02-14T12:31:02;101786.16;;;18.13;80.27
54546;BME280;40444;45.184;9.850;2024-02-14T12:33:32;101776.38;;;18.20;82.79
54546;BME280;40444;45.184;9.850;2024-02-14T12:36:00;101776.78;;;18.07;80.00
54546;BME280;40444;45.184;9.850;2024-02-14T12:38:29;101773.59;;;17.86;82.06
54546;BME280;40444;45.184;9.850;2024-02-14T12:40:58;101764.63;;;17.93;81.05
54546;BME280;40444;45.184;9.850;2024-02-14T12:43:26;101773.13;;;17.90;81.69
54546;BME280;40444;45.184;9.850;2024-02-14T12:45:55;101777.81;;;17.88;79.30
54546;BME280;40444;45.184;9.850;2024-02-14T12:48:24;101771.09;;;17.75;82.03
54546;BME280;40444;45.184;9.850;2024-02-14T12:50:56;101768.16;;;17.86;83.82
54546;BME280;40444;45.184;9.850;2024-02-14T12:53:26;101770.72;;;17.87;82.06
54546;BME280;40444;45.184;9.850;2024-02-14T12:55:55;101765.22;;;17.79;79.59
54546;BME280;40444;45.184;9.850;2024-02-14T12:58:23;101769.31;;;17.83;81.57
54546;BME280;40444;45.184;9.850;2024-02-14T13:00:52;101755.44;;;17.86;81.29
54546;BME280;40444;45.184;9.850;2024-02-14T13:03:21;101764.81;;;17.74;79.74
54546;BME280;40444;45.184;9.850;2024-02-14T13:05:52;101768.09;;;17.78;81.93